イエローナイフ空港の過去48時間の天気

イエローナイフ空港 (Yellowknife)

現在時刻: 9/25 13:54 MDT (9/25 19:54 UTC) 以下の時間は現地時間です。

過去48時間のMETAR気象情報
時間 風向 風速(m/s) 視程 気温(℃) 湿度(%) 気圧(hPa) 天気現象
25 13:00 南南東 9 10km以上 9 62 1013.7
25 12:26 南東 6 10km以上 8 66 1013.9
25 12:00 南東 7 10km以上 7 76 1014 弱い雨
25 11:45 南東 9 10km以上 7 76 1014.2 弱い雨
25 11:00 東南東 6 10km以上 7 76 1014.8
25 10:00 東南東 5 10km以上 6 81 1015.4
25 09:00 東南東 5 10km以上 5 81 1015.6
25 08:00 東南東 4 10km以上 5 81 1016.3
25 07:00 東南東 5 10km以上 4 81 1016.6
25 06:00 東南東 4 10km以上 3 75 1017.1
25 05:00 東南東 4 10km以上 2 75 1017.2
25 04:00 東南東 3 10km以上 2 81 1017.3
25 03:00 4 10km以上 2 81 1017.3
25 02:00 3 10km以上 0 86 1017.8
25 01:00 3 10km以上 -1 86 1017.6
25 00:00 2 10km以上 1 80 1017.1
24 23:00 1 10km以上 1 75 1016.9
24 22:00 静穏 0 10km以上 1 75 1017
24 21:00 北西 1 10km以上 0 74 1016.9
24 20:28 西北西 2 10km以上 2 69 1016.8
24 20:00 西北西 2 10km以上 3 65 1016.4
24 19:00 西北西 2 10km以上 5 52 1015.6
24 18:00 北西 5 10km以上 6 49 1014.7
24 17:00 北西 5 10km以上 6 49 1013.8
24 16:00 北北西 6 10km以上 6 52 1012.9
24 15:00 西北西 5 10km以上 5 61 1011.8 周辺でしゅう雨
24 14:47 北西 5 10km以上 5 61 1011.6 周辺でしゅう雨
24 14:36 北西 9 10km以上 5 65 1011.5 弱い雨
24 14:00 北西 8 10km以上 6 52 1010.3
24 13:00 北西 7 10km以上 6 57 1008.9
24 12:00 北西 10 10km以上 5 56 1007.5
24 11:00 北西 7 10km以上 5 61 1005.8
24 10:00 西北西 8 10km以上 4 65 1004.4
24 09:00 西北西 8 10km以上 3 70 1002.5
24 08:00 西北西 6 10km以上 2 75 1001.1
24 07:00 西北西 6 10km以上 2 75 999.7
24 06:36 北西 7 10km以上 2 69 999.1
24 06:00 西北西 7 10km以上 3 65 998.5
24 05:00 西北西 8 10km以上 5 61 996.9
24 04:00 西 5 10km以上 5 70 995.6
24 03:00 西 3 10km以上 5 70 994.5
24 02:00 西 3 10km以上 7 66 993.5
24 01:00 西 4 10km以上 8 61 992.9
24 00:00 南西 4 10km以上 8 61 992.9
23 23:00 南西 3 10km以上 8 61 992.9
23 22:00 南南西 3 10km以上 9 62 992.9
23 21:00 南西 3 10km以上 11 50 993.2
23 20:00 南西 2 10km以上 12 47 993.2
23 19:00 南西 2 10km以上 13 38 993.1
23 18:00 西南西 2 10km以上 14 31 993.2
23 17:00 西 7 10km以上 15 27 993.2
23 16:00 西南西 7 10km以上 15 33 992.8
23 15:00 西南西 5 10km以上 15 45 993.1
23 14:00 西 6 10km以上 14 44 992.9
CYZF 251900Z 15017G24KT 15SM FEW050 SCT120 09/02 A2989 RMK SC2AC2 SLP137
CYZF 251826Z 13012G19KT 15SM FEW050 SCT080 BKN120 08/02 A2990 RMK SC1AC2AC2 SC TR SLP139
CYZF 251800Z 13014G21KT 15SM -RA FEW050 BKN080 BKN120 07/03 A2990 RMK SC2AC3AC2 SLP140
CYZF 251745Z 13018KT 15SM -RA SCT050 BKN120 07/03 A2991 RMK SC3AC4 SLP142
CYZF 251700Z 12012KT 15SM BKN120 07/03 A2993 RMK AC6 SLP148
CYZF 251600Z 12010KT 15SM FEW080 BKN120 06/03 A2994 RMK AC2AC5 SLP154
CYZF 251500Z 11010KT 15SM SCT080 BKN110 05/02 A2995 RMK AC3AC3 SLP156
CYZF 251400Z 12008KT 15SM FEW020 BKN100 05/02 A2997 RMK SC1AC5 SLP163
CYZF 251300Z 12009KT 15SM FEW020 BKN120 04/01 A2998 RMK SC1AC5 SLP166
CYZF 251200Z 12008KT 15SM BKN023 03/M01 A2999 RMK SC7 SLP171
CYZF 251100Z 12007KT 15SM FEW100 02/M02 A2999 RMK AC2 SLP172
CYZF 251000Z 11006KT 15SM SCT100 02/M01 A3000 RMK AC3 SLP173
CYZF 250900Z 10007KT 15SM SCT082 02/M01 A3000 RMK AC3 SLP173
CYZF 250800Z 10006KT 15SM SKC M00/M02 A3001 RMK SLP178
CYZF 250700Z 10005KT 15SM SKC M01/M03 A3000 RMK SLP176
CYZF 250600Z 10004KT 15SM SKC 01/M02 A2999 RMK SLP171
CYZF 250500Z 08002KT 15SM SKC 01/M03 A2999 RMK SLP169
CYZF 250400Z 00000KT 15SM SKC 01/M03 A2999 RMK SLP170
CYZF 250300Z 32002KT 15SM FEW150 00/M04 A2998 RMK AC1 AC TR SLP169
CYZF 250228Z 29004KT 15SM FEW150 FEW240 02/M03 A2998 RMK AC1CI1 AC TR CI TR SLP168
CYZF 250200Z 29004KT 15SM FEW150 FEW240 03/M03 A2997 RMK AC1CI1 AC TR CI TR SLP164
CYZF 250100Z 29004KT 15SM FEW038 FEW240 05/M04 A2995 RMK SC1CI1 SC TR CI TR SLP156
CYZF 250000Z 31009KT 15SM FEW038 FEW240 06/M04 A2992 RMK SC1CI1 CI TR SLP147
CYZF 242300Z 31009KT 15SM FEW038 FEW240 06/M04 A2990 RMK SC2CI1 CI TR SLP138
CYZF 242200Z 33011G20KT 280V360 15SM BKN038 BKN180 06/M03 A2987 RMK SC7AC1 AC TR SLP129
CYZF 242100Z 29010KT 15SM VCSH SCT035 BKN180 05/M02 A2984 RMK SC4AC3 SLP118
CYZF 242047Z 31010G20KT 15SM VCSH SCT035 BKN180 05/M02 A2983 RMK SC3AC4 SLP116
CYZF 242036Z 31018G23KT 15SM -RA BKN035 BKN160 05/M01 A2983 RMK SC6AC1 SLP115
CYZF 242000Z 32015G22KT 15SM BKN035 BKN160 06/M03 A2980 RMK SC6AC1 SLP103
CYZF 241900Z 31014G22KT 15SM BKN030 06/M02 A2976 RMK SC6 SLP089
CYZF 241800Z 31019G25KT 15SM SCT030 BKN160 05/M03 A2971 RMK SC4AC1 SLP075
CYZF 241700Z 31013G26KT 15SM SCT030 BKN160 05/M02 A2966 RMK SC4AC1 SLP058
CYZF 241600Z 29016G21KT 15SM SCT030 BKN150 04/M02 A2962 RMK SC4AC1 SLP044
CYZF 241500Z 30015G23KT 15SM FEW010 SCT150 03/M02 A2957 RMK SC1AC3 SC TR SLP025
CYZF 241400Z 30012G18KT 15SM FEW010 FEW110 02/M02 A2953 RMK SC1AC1 SC TR SLP011
CYZF 241300Z 30011G16KT 15SM FEW020 FEW110 02/M02 A2949 RMK SC1AC1 SC TR PRESRR SLP997
CYZF 241236Z 31014G22KT 15SM FEW020 FEW110 02/M03 A2947 RMK SC1AC1 SC TR SLP991
CYZF 241200Z 30014G20KT 15SM FEW110 03/M03 A2945 RMK AC1 SLP985
CYZF 241100Z 30016KT 15SM FEW110 05/M02 A2941 RMK AC2 SLP969
CYZF 241000Z 27009KT 15SM FEW160 05/00 A2937 RMK AC1 SLP956
CYZF 240900Z 26005KT 15SM SCT160 05/00 A2934 RMK AC4 SLP945
CYZF 240800Z 28006KT 15SM BKN160 07/01 A2931 RMK AC5 SLP935
CYZF 240700Z 26008KT 15SM FEW240 08/01 A2929 RMK CI2 SLP929 DENSITY ALT 700FT
CYZF 240600Z 23007KT 15SM SCT240 08/01 A2929 RMK CI3 SLP929 DENSITY ALT 800FT
CYZF 240500Z 22006KT 15SM SCT100 BKN240 08/01 A2929 RMK AC3CI2 SLP929 DENSITY ALT 700FT
CYZF 240400Z 21005KT 15SM SCT100 BKN200 09/02 A2929 RMK AC3CI2 SLP929 DENSITY ALT 900FT
CYZF 240300Z 22005KT 15SM BKN090 BKN200 11/01 A2930 RMK AC5CI1 AURBO SLP932 DENSITY ALT 1100FT
CYZF 240200Z 23004KT 15SM BKN100 BKN200 12/01 A2930 RMK AC7CI1 CI TR SLP932 DENSITY ALT 1200FT
CYZF 240100Z 22003KT 15SM BKN090 BKN200 13/M01 A2930 RMK AC7CI1 CI TR SLP931 DENSITY ALT 1300FT
CYZF 240000Z 25004KT 15SM BKN100 BKN200 14/M03 A2930 RMK AC6CI1 SLP932 DENSITY ALT 1500FT
CYZF 232300Z 26013G18KT 15SM FEW045 FEW100 15/M04 A2930 RMK SC1AC1 SLP932 DENSITY ALT 1600FT
CYZF 232200Z 24013KT 210V280 15SM FEW045 FEW100 15/M01 A2929 RMK CU1AC1 CU TR SLP928 DENSITY ALT 1600FT
CYZF 232100Z 25010G16KT 15SM FEW045 FEW100 15/03 A2930 RMK SC1AC1 SC TR SLP931 DENSITY ALT 1600FT
CYZF 232000Z 27011G17KT 15SM FEW030 14/02 A2930 RMK CU1 SLP929 DENSITY ALT 1500FT